Time,TemperatureF,DewpointF,PressureIn,WindDirection,WindDirectionDegrees,WindSpeedMPH,WindSpeedGustMPH,Humidity,HourlyPrecipIn,Conditions,Clouds,dailyrainin,SoftwareType,DateUTC
2013-02-23 00:02:00,50.1,49.6,30.03,NNE,27,6.0,7.0,98,0.01,,---,0.37,VWS V14.01,2013-02-23 05:02:00,
2013-02-23 00:07:00,50.0,49.5,30.03,NE,43,4.0,8.0,98,0.01,,---,0.00,VWS V14.01,2013-02-23 05:07:00,
2013-02-23 00:17:00,49.9,49.4,30.03,NE,34,6.0,6.0,98,0.02,,---,0.01,VWS V14.01,2013-02-23 05:17:00,
2013-02-23 00:22:00,49.9,49.4,30.03,NNE,20,5.0,6.0,98,0.02,,---,0.01,VWS V14.01,2013-02-23 05:22:00,
2013-02-23 00:27:00,49.9,49.4,30.03,NNE,25,4.0,5.0,98,0.02,,---,0.01,VWS V14.01,2013-02-23 05:27:00,
2013-02-23 00:32:00,50.0,49.7,30.03,North,349,4.0,6.0,99,0.03,,---,0.02,VWS V14.01,2013-02-23 05:32:00,
2013-02-23 00:37:00,49.9,49.4,30.03,NNE,23,4.0,7.0,98,0.03,,---,0.02,VWS V14.01,2013-02-23 05:37:00,
2013-02-23 00:42:00,49.9,49.4,30.03,NNW,348,6.0,7.0,98,0.03,,---,0.02,VWS V14.01,2013-02-23 05:42:00,
2013-02-23 00:47:00,49.9,49.4,30.03,NNW,338,3.0,7.0,98,0.04,,---,0.03,VWS V14.01,2013-02-23 05:47:00,
2013-02-23 00:52:00,49.8,49.3,30.03,NNE,30,5.0,5.0,98,0.03,,---,0.03,VWS V14.01,2013-02-23 05:52:00,
2013-02-23 00:57:00,49.7,49.2,30.04,NNW,329,3.0,8.0,98,0.03,,---,0.03,VWS V14.01,2013-02-23 05:57:00,
2013-02-23 01:02:00,49.7,49.2,30.04,NNW,335,2.0,7.0,98,0.04,,---,0.04,VWS V14.01,2013-02-23 06:02:00,
2013-02-23 01:07:00,49.7,49.4,30.03,North,353,1.0,4.0,99,0.04,,---,0.04,VWS V14.01,2013-02-23 06:07:00,
2013-02-23 01:12:00,49.6,49.1,30.04,NNW,331,2.0,6.0,98,0.04,,---,0.04,VWS V14.01,2013-02-23 06:12:00,
2013-02-23 01:17:00,49.5,49.0,30.04,North,6,3.0,6.0,98,0.05,,---,0.05,VWS V14.01,2013-02-23 06:17:00,
2013-02-23 01:27:00,49.3,48.8,30.04,NW,312,3.0,5.0,98,0.04,,---,0.05,VWS V14.01,2013-02-23 06:27:00,
2013-02-23 01:32:00,49.2,48.7,30.04,NW,325,3.0,7.0,98,0.04,,---,0.05,VWS V14.01,2013-02-23 06:32:00,
2013-02-23 01:37:00,49.1,48.6,30.04,NW,314,2.0,7.0,98,0.03,,---,0.05,VWS V14.01,2013-02-23 06:37:00,
2013-02-23 01:42:00,48.8,48.3,30.04,NNW,328,4.0,7.0,98,0.03,,---,0.05,VWS V14.01,2013-02-23 06:42:00,
2013-02-23 01:52:00,48.7,48.2,30.03,NNW,335,3.0,9.0,98,0.03,,---,0.06,VWS V14.01,2013-02-23 06:52:00,
2013-02-23 02:02:00,48.6,48.1,30.02,North,8,7.0,7.0,98,0.03,,---,0.06,VWS V14.01,2013-02-23 07:02:00,
2013-02-23 02:12:00,48.3,47.8,30.01,NNW,340,4.0,7.0,98,0.03,,---,0.07,VWS V14.01,2013-02-23 07:12:00,
2013-02-23 02:17:00,48.2,47.7,30.01,North,359,6.0,8.0,98,0.03,,---,0.07,VWS V14.01,2013-02-23 07:17:00,
2013-02-23 02:22:00,48.1,47.6,30.01,North,356,5.0,6.0,98,0.02,,---,0.07,VWS V14.01,2013-02-23 07:22:00,
2013-02-23 02:27:00,48.0,47.5,30.00,North,359,4.0,8.0,98,0.03,,---,0.08,VWS V14.01,2013-02-23 07:27:00,
2013-02-23 02:37:00,47.8,47.3,29.99,NNE,22,4.0,7.0,98,0.04,,---,0.09,VWS V14.01,2013-02-23 07:37:00,
2013-02-23 02:42:00,47.8,47.3,29.99,North,5,3.0,5.0,98,0.04,,---,0.09,VWS V14.01,2013-02-23 07:42:00,
2013-02-23 02:47:00,47.7,47.2,29.99,North,5,5.0,6.0,98,0.04,,---,0.09,VWS V14.01,2013-02-23 07:47:00,
2013-02-23 02:52:00,47.7,47.2,29.99,North,351,4.0,5.0,98,0.05,,---,0.10,VWS V14.01,2013-02-23 07:52:00,
2013-02-23 02:57:00,47.6,47.1,29.99,NNW,333,4.0,6.0,98,0.04,,---,0.10,VWS V14.01,2013-02-23 07:57:00,
2013-02-23 03:02:00,47.6,47.1,29.98,NNW,338,2.0,7.0,98,0.04,,---,0.10,VWS V14.01,2013-02-23 08:02:00,
2013-02-23 03:07:00,47.5,47.0,29.98,NNW,335,3.0,7.0,98,0.04,,---,0.10,VWS V14.01,2013-02-23 08:07:00,
2013-02-23 03:17:00,47.4,46.9,29.97,NNE,32,4.0,7.0,98,0.04,,---,0.11,VWS V14.01,2013-02-23 08:17:00,
2013-02-23 03:22:00,47.6,47.3,29.97,NNE,26,1.0,4.0,99,0.04,,---,0.11,VWS V14.01,2013-02-23 08:22:00,
2013-02-23 03:27:00,47.6,47.3,29.97,NE,48,1.0,4.0,99,0.04,,---,0.11,VWS V14.01,2013-02-23 08:27:00,
2013-02-23 03:32:00,47.5,47.2,29.97,NNE,32,1.0,4.0,99,0.04,,---,0.12,VWS V14.01,2013-02-23 08:32:00,
2013-02-23 03:37:00,47.6,47.3,29.97,NE,39,0.0,3.0,99,0.06,,---,0.14,VWS V14.01,2013-02-23 08:37:00,
2013-02-23 03:42:00,47.6,47.3,29.96,NNE,29,4.0,4.0,99,0.06,,---,0.15,VWS V14.01,2013-02-23 08:42:00,
2013-02-23 03:47:00,47.6,47.3,29.96,NE,36,2.0,4.0,99,0.08,,---,0.17,VWS V14.01,2013-02-23 08:47:00,
2013-02-23 03:52:00,47.7,47.4,29.95,ENE,75,4.0,4.0,99,0.12,,---,0.21,VWS V14.01,2013-02-23 08:52:00,
2013-02-23 04:02:00,48.0,47.7,29.94,East,84,3.0,3.0,99,0.15,,---,0.25,VWS V14.01,2013-02-23 09:02:00,
2013-02-23 04:12:00,48.2,47.9,29.93,ENE,61,3.0,3.0,99,0.17,,---,0.27,VWS V14.01,2013-02-23 09:12:00,
2013-02-23 04:17:00,48.3,48.0,29.93,ENE,65,2.0,3.0,99,0.16,,---,0.27,VWS V14.01,2013-02-23 09:17:00,
2013-02-23 04:22:00,48.5,48.2,29.93,NE,53,4.0,4.0,99,0.16,,---,0.27,VWS V14.01,2013-02-23 09:22:00,
2013-02-23 04:27:00,48.5,48.2,29.94,ENE,69,4.0,5.0,99,0.16,,---,0.27,VWS V14.01,2013-02-23 09:27:00,
2013-02-23 04:32:00,48.5,48.2,29.94,NE,41,2.0,5.0,99,0.16,,---,0.27,VWS V14.01,2013-02-23 09:32:00,
2013-02-23 04:42:00,48.7,48.4,29.94,NNE,20,7.0,7.0,99,0.13,,---,0.27,VWS V14.01,2013-02-23 09:42:00,
2013-02-23 04:47:00,48.6,48.3,29.94,North,349,3.0,7.0,99,0.12,,---,0.27,VWS V14.01,2013-02-23 09:47:00,
2013-02-23 04:52:00,48.5,48.2,29.94,North,356,5.0,7.0,99,0.10,,---,0.27,VWS V14.01,2013-02-23 09:52:00,
2013-02-23 04:57:00,48.5,48.2,29.94,NNE,31,4.0,9.0,99,0.06,,---,0.27,VWS V14.01,2013-02-23 09:57:00,
2013-02-23 05:02:00,48.5,48.2,29.94,NNE,20,5.0,8.0,99,0.04,,---,0.27,VWS V14.01,2013-02-23 10:02:00,
2013-02-23 05:12:00,48.4,48.1,29.94,NNE,20,8.0,10.0,99,0.01,,---,0.27,VWS V14.01,2013-02-23 10:12:00,
2013-02-23 05:22:00,47.9,47.4,29.94,NNE,28,6.0,10.0,98,0.02,,---,0.29,VWS V14.01,2013-02-23 10:22:00,
2013-02-23 05:27:00,47.7,47.2,29.95,NNE,26,6.0,9.0,98,0.03,,---,0.30,VWS V14.01,2013-02-23 10:27:00,
2013-02-23 05:32:00,47.6,47.1,29.97,NW,308,3.0,7.0,98,0.04,,---,0.31,VWS V14.01,2013-02-23 10:32:00,
2013-02-23 05:37:00,47.4,46.9,29.95,NNE,20,5.0,8.0,98,0.09,,---,0.36,VWS V14.01,2013-02-23 10:37:00,
2013-02-23 05:42:00,47.4,46.9,29.96,North,5,4.0,7.0,98,0.10,,---,0.37,VWS V14.01,2013-02-23 10:42:00,
2013-02-23 05:47:00,47.4,47.1,29.95,NE,43,2.0,5.0,99,0.10,,---,0.37,VWS V14.01,2013-02-23 10:47:00,
2013-02-23 05:52:00,47.3,46.8,29.96,NNE,25,4.0,7.0,98,0.11,,---,0.38,VWS V14.01,2013-02-23 10:52:00,
2013-02-23 05:57:00,47.3,47.0,29.95,NE,36,3.0,6.0,99,0.13,,---,0.40,VWS V14.01,2013-02-23 10:57:00,
2013-02-23 06:02:00,47.3,47.0,29.95,NE,42,7.0,7.0,99,0.14,,---,0.41,VWS V14.01,2013-02-23 11:02:00,
2013-02-23 06:07:00,47.3,47.0,29.95,NE,51,2.0,9.0,99,0.16,,---,0.43,VWS V14.01,2013-02-23 11:07:00,
2013-02-23 06:12:00,47.2,46.9,29.94,NE,46,7.0,8.0,99,0.18,,---,0.45,VWS V14.01,2013-02-23 11:12:00,
2013-02-23 06:17:00,47.3,47.0,29.93,NE,50,7.0,11.0,99,0.19,,---,0.46,VWS V14.01,2013-02-23 11:17:00,
2013-02-23 06:22:00,47.3,47.0,29.93,ENE,63,5.0,8.0,99,0.22,,---,0.50,VWS V14.01,2013-02-23 11:22:00,
2013-02-23 06:32:00,47.7,47.4,29.94,ENE,70,4.0,6.0,99,0.30,,---,0.60,VWS V14.01,2013-02-23 11:32:00,
2013-02-23 06:37:00,47.9,47.6,29.93,ENE,67,4.0,6.0,99,0.32,,---,0.63,VWS V14.01,2013-02-23 11:37:00,
2013-02-23 06:42:00,47.9,47.6,29.94,NE,48,3.0,7.0,99,0.33,,---,0.69,VWS V14.01,2013-02-23 11:42:00,
2013-02-23 06:47:00,47.9,47.6,29.93,ENE,65,5.0,7.0,99,0.38,,---,0.75,VWS V14.01,2013-02-23 11:47:00,
2013-02-23 06:57:00,48.0,47.7,29.94,East,97,4.0,6.0,99,0.45,,---,0.83,VWS V14.01,2013-02-23 11:57:00,
2013-02-23 07:02:00,48.1,47.8,29.95,NNW,333,2.0,5.0,99,0.46,,---,0.86,VWS V14.01,2013-02-23 12:02:00,
2013-02-23 07:07:00,48.1,47.8,29.95,NW,316,4.0,8.0,99,0.46,,---,0.87,VWS V14.01,2013-02-23 12:07:00,
2013-02-23 07:17:00,48.0,47.7,29.95,NNE,18,0.0,3.0,99,0.42,,---,0.87,VWS V14.01,2013-02-23 12:17:00,
2013-02-23 07:22:00,48.0,47.7,29.94,ENE,77,3.0,3.0,99,0.42,,---,0.88,VWS V14.01,2013-02-23 12:22:00,
2013-02-23 07:27:00,48.1,47.8,29.94,NE,36,3.0,4.0,99,0.40,,---,0.90,VWS V14.01,2013-02-23 12:27:00,
2013-02-23 07:32:00,48.3,48.0,29.95,NE,39,0.0,4.0,99,0.33,,---,0.90,VWS V14.01,2013-02-23 12:32:00,
2013-02-23 07:37:00,48.2,47.9,29.94,ESE,102,5.0,5.0,99,0.30,,---,0.90,VWS V14.01,2013-02-23 12:37:00,
2013-02-23 07:42:00,48.3,48.0,29.94,SE,124,2.0,6.0,99,0.27,,---,0.90,VWS V14.01,2013-02-23 12:42:00,
2013-02-23 07:47:00,48.4,48.1,29.95,SSE,167,2.0,2.0,99,0.21,,---,0.90,VWS V14.01,2013-02-23 12:47:00,
2013-02-23 07:57:00,48.5,48.2,29.95,SSE,164,2.0,3.0,99,0.12,,---,0.90,VWS V14.01,2013-02-23 12:57:00,
2013-02-23 08:02:00,48.6,48.3,29.95,ESE,123,2.0,3.0,99,0.07,,---,0.90,VWS V14.01,2013-02-23 13:02:00,
2013-02-23 08:07:00,48.9,48.6,29.95,East,87,2.0,3.0,99,0.05,,---,0.91,VWS V14.01,2013-02-23 13:07:00,
2013-02-23 08:12:00,49.1,48.8,29.95,East,96,0.0,3.0,99,0.04,,---,0.91,VWS V14.01,2013-02-23 13:12:00,
2013-02-23 08:22:00,49.6,49.3,29.94,ESE,107,5.0,5.0,99,0.04,,---,0.91,VWS V14.01,2013-02-23 13:22:00,
2013-02-23 08:27:00,49.8,49.5,29.94,East,96,1.0,5.0,99,0.03,,---,0.91,VWS V14.01,2013-02-23 13:27:00,
2013-02-23 08:32:00,50.0,49.7,29.95,SSE,165,0.0,4.0,99,0.01,,---,0.91,VWS V14.01,2013-02-23 13:32:00,
2013-02-23 08:37:00,50.2,49.9,29.95,NE,49,3.0,3.0,99,0.01,,---,0.91,VWS V14.01,2013-02-23 13:37:00,
2013-02-23 08:42:00,50.3,50.0,29.96,ENE,76,0.0,3.0,99,0.02,,---,0.92,VWS V14.01,2013-02-23 13:42:00,
2013-02-23 08:52:00,50.7,50.4,29.95,East,100,3.0,4.0,99,0.03,,---,0.93,VWS V14.01,2013-02-23 13:52:00,
2013-02-23 08:57:00,51.0,50.7,29.95,SE,127,1.0,3.0,99,0.05,,---,0.95,VWS V14.01,2013-02-23 13:57:00,
2013-02-23 09:02:00,51.2,50.9,29.95,East,101,2.0,2.0,99,0.05,,---,0.95,VWS V14.01,2013-02-23 14:02:00,
2013-02-23 09:07:00,51.3,51.0,29.95,East,98,2.0,4.0,99,0.06,,---,0.96,VWS V14.01,2013-02-23 14:07:00,
2013-02-23 09:12:00,51.5,51.2,29.94,East,101,1.0,4.0,99,0.05,,---,0.96,VWS V14.01,2013-02-23 14:12:00,
2013-02-23 09:17:00,51.7,51.4,29.95,SE,136,1.0,4.0,99,0.06,,---,0.97,VWS V14.01,2013-02-23 14:17:00,
2013-02-23 09:27:00,52.1,51.8,29.95,ESE,120,0.0,1.0,99,0.08,,---,0.99,VWS V14.01,2013-02-23 14:27:00,
2013-02-23 09:32:00,52.1,51.8,29.96,NNW,327,8.0,10.0,99,0.08,,---,0.99,VWS V14.01,2013-02-23 14:32:00,
2013-02-23 09:37:00,51.4,51.1,29.96,NW,316,7.0,10.0,99,0.09,,---,1.00,VWS V14.01,2013-02-23 14:37:00,
2013-02-23 09:47:00,50.8,50.5,29.96,NNW,341,4.0,7.0,99,0.11,,---,1.03,VWS V14.01,2013-02-23 14:47:00,
2013-02-23 09:52:00,50.5,50.2,29.96,North,4,4.0,6.0,99,0.12,,---,1.04,VWS V14.01,2013-02-23 14:52:00,
2013-02-23 09:57:00,50.4,50.1,29.96,West,271,0.0,7.0,99,0.13,,---,1.06,VWS V14.01,2013-02-23 14:57:00,
2013-02-23 10:02:00,50.2,49.9,29.96,NNW,347,3.0,6.0,99,0.13,,---,1.08,VWS V14.01,2013-02-23 15:02:00,
2013-02-23 10:12:00,49.8,49.5,29.97,NNW,346,3.0,9.0,99,0.16,,---,1.12,VWS V14.01,2013-02-23 15:12:00,
2013-02-23 10:17:00,49.4,48.9,29.97,NNE,23,6.0,8.0,98,0.18,,---,1.14,VWS V14.01,2013-02-23 15:17:00,
2013-02-23 10:22:00,49.1,48.8,29.96,North,8,3.0,7.0,99,0.19,,---,1.16,VWS V14.01,2013-02-23 15:22:00,
2013-02-23 10:32:00,49.0,48.7,29.96,NNE,29,4.0,6.0,99,0.22,,---,1.21,VWS V14.01,2013-02-23 15:32:00,
2013-02-23 10:37:00,49.1,48.8,29.96,NNE,22,3.0,5.0,99,0.24,,---,1.23,VWS V14.01,2013-02-23 15:37:00,
2013-02-23 10:42:00,49.2,48.9,29.96,NE,36,2.0,4.0,99,0.26,,---,1.26,VWS V14.01,2013-02-23 15:42:00,
2013-02-23 10:52:00,49.5,49.2,29.95,East,84,1.0,2.0,99,0.28,,---,1.31,VWS V14.01,2013-02-23 15:52:00,
2013-02-23 10:57:00,49.6,49.3,29.95,East,94,0.0,2.0,99,0.28,,---,1.32,VWS V14.01,2013-02-23 15:57:00,
2013-02-23 11:02:00,49.8,49.5,29.96,NNE,19,1.0,1.0,99,0.28,,---,1.34,VWS V14.01,2013-02-23 16:02:00,
2013-02-23 11:07:00,50.0,49.7,29.96,NNE,24,0.0,1.0,99,0.28,,---,1.36,VWS V14.01,2013-02-23 16:07:00,
2013-02-23 11:17:00,50.4,50.1,29.96,NE,46,0.0,1.0,99,0.30,,---,1.42,VWS V14.01,2013-02-23 16:17:00,
2013-02-23 11:22:00,50.6,50.3,29.96,NE,39,1.0,1.0,99,0.31,,---,1.45,VWS V14.01,2013-02-23 16:22:00,
2013-02-23 11:32:00,51.0,50.7,29.97,NW,309,2.0,2.0,99,0.31,,---,1.50,VWS V14.01,2013-02-23 16:32:00,
2013-02-23 11:37:00,51.2,50.9,29.97,WNW,291,0.0,2.0,99,0.32,,---,1.53,VWS V14.01,2013-02-23 16:37:00,
2013-02-23 11:47:00,51.5,51.2,29.96,SE,143,1.0,2.0,99,0.33,,---,1.59,VWS V14.01,2013-02-23 16:47:00,
2013-02-23 11:52:00,51.7,51.4,29.96,SE,134,0.0,2.0,99,0.33,,---,1.62,VWS V14.01,2013-02-23 16:52:00,
2013-02-23 11:57:00,51.9,51.6,29.96,NW,313,1.0,2.0,99,0.33,,---,1.64,VWS V14.01,2013-02-23 16:57:00,
2013-02-23 12:03:00,52.1,51.8,29.96,West,278,0.0,3.0,99,0.39,,---,1.71,VWS V14.01,2013-02-23 17:03:00,
2013-02-23 12:12:00,52.5,52.2,29.95,SSE,158,1.0,3.0,99,0.41,,---,1.77,VWS V14.01,2013-02-23 17:12:00,
2013-02-23 12:22:00,52.7,52.4,29.95,SW,229,0.0,0.0,99,0.37,,---,1.79,VWS V14.01,2013-02-23 17:22:00,
2013-02-23 12:27:00,53.0,52.7,29.94,SSE,165,0.0,1.0,99,0.34,,---,1.79,VWS V14.01,2013-02-23 17:27:00,
2013-02-23 12:32:00,53.2,52.9,29.94,West,260,0.0,0.0,99,0.32,,---,1.79,VWS V14.01,2013-02-23 17:32:00,
2013-02-23 12:37:00,53.5,53.2,29.94,West,260,0.0,0.0,99,0.29,,---,1.79,VWS V14.01,2013-02-23 17:37:00,
2013-02-23 12:42:00,53.7,53.4,29.94,West,260,0.0,0.0,99,0.27,,---,1.80,VWS V14.01,2013-02-23 17:42:00,
2013-02-23 12:47:00,53.8,53.5,29.94,West,260,0.0,0.0,99,0.24,,---,1.80,VWS V14.01,2013-02-23 17:47:00,
2013-02-23 12:52:00,53.9,53.6,29.94,West,259,0.0,1.0,99,0.21,,---,1.80,VWS V14.01,2013-02-23 17:52:00,
2013-02-23 13:02:00,54.4,54.1,29.95,SW,231,1.0,3.0,99,0.17,,---,1.81,VWS V14.01,2013-02-23 18:02:00,
2013-02-23 13:07:00,54.8,54.5,29.94,SSW,212,0.0,1.0,99,0.11,,---,1.82,VWS V14.01,2013-02-23 18:07:00,
2013-02-23 13:12:00,55.1,54.8,29.94,WSW,245,0.0,3.0,99,0.08,,---,1.82,VWS V14.01,2013-02-23 18:12:00,
2013-02-23 13:17:00,55.3,55.0,29.94,WSW,246,0.0,3.0,99,0.06,,---,1.83,VWS V14.01,2013-02-23 18:17:00,
2013-02-23 13:27:00,55.2,54.9,29.93,SW,214,0.0,1.0,99,0.06,,---,1.85,VWS V14.01,2013-02-23 18:27:00,
2013-02-23 13:37:00,55.4,55.1,29.92,South,186,0.0,3.0,99,0.06,,---,1.85,VWS V14.01,2013-02-23 18:37:00,
2013-02-23 13:42:00,55.6,55.3,29.92,West,271,1.0,2.0,99,0.06,,---,1.85,VWS V14.01,2013-02-23 18:42:00,
2013-02-23 13:47:00,55.7,55.4,29.92,West,260,0.0,1.0,99,0.06,,---,1.86,VWS V14.01,2013-02-23 18:47:00,
2013-02-23 13:52:00,56.0,55.7,29.92,SSE,163,0.0,1.0,99,0.06,,---,1.86,VWS V14.01,2013-02-23 18:52:00,
2013-02-23 13:57:00,56.1,55.8,29.92,South,169,0.0,1.0,99,0.06,,---,1.86,VWS V14.01,2013-02-23 18:57:00,
2013-02-23 14:02:00,56.1,55.8,29.92,SW,231,0.0,0.0,99,0.06,,---,1.86,VWS V14.01,2013-02-23 19:02:00,
2013-02-23 14:12:00,56.1,55.8,29.92,SW,214,1.0,3.0,99,0.11,,---,1.93,VWS V14.01,2013-02-23 19:12:00,
2013-02-23 14:17:00,56.1,55.8,29.92,SE,134,1.0,2.0,99,0.14,,---,1.96,VWS V14.01,2013-02-23 19:17:00,
2013-02-23 14:27:00,57.5,57.2,29.90,SSW,204,8.0,11.0,99,0.17,,---,2.01,VWS V14.01,2013-02-23 19:27:00,
2013-02-23 14:32:00,58.4,58.1,29.89,SE,145,7.0,9.0,99,0.17,,---,2.02,VWS V14.01,2013-02-23 19:32:00,
2013-02-23 14:37:00,59.1,59.1,29.89,SSE,159,0.0,9.0,100,0.18,,---,2.03,VWS V14.01,2013-02-23 19:37:00,
2013-02-23 14:42:00,59.8,59.8,29.89,SE,145,2.0,8.0,100,0.18,,---,2.03,VWS V14.01,2013-02-23 19:42:00,
2013-02-23 14:52:00,60.4,60.4,29.87,SSE,160,5.0,13.0,100,0.18,,---,2.04,VWS V14.01,2013-02-23 19:52:00,
2013-02-23 14:57:00,60.2,60.2,29.86,SSE,164,6.0,9.0,100,0.19,,---,2.05,VWS V14.01,2013-02-23 19:57:00,
2013-02-23 15:02:00,60.1,60.1,29.86,SSE,150,4.0,8.0,100,0.19,,---,2.05,VWS V14.01,2013-02-23 20:02:00,
2013-02-23 15:12:00,60.4,60.4,29.85,SSE,148,9.0,10.0,100,0.17,,---,2.05,VWS V14.01,2013-02-23 20:12:00,
2013-02-23 15:17:00,60.5,60.5,29.84,SE,138,4.0,15.0,100,0.12,,---,2.05,VWS V14.01,2013-02-23 20:17:00,
2013-02-23 15:22:00,60.3,60.3,29.84,SSE,164,5.0,10.0,100,0.09,,---,2.05,VWS V14.01,2013-02-23 20:22:00,
2013-02-23 15:27:00,60.1,60.1,29.84,SSE,163,4.0,11.0,100,0.08,,---,2.06,VWS V14.01,2013-02-23 20:27:00,
2013-02-23 15:32:00,60.1,59.8,29.85,SSW,205,1.0,7.0,99,0.05,,---,2.06,VWS V14.01,2013-02-23 20:32:00,
2013-02-23 15:37:00,60.0,59.7,29.85,SSE,163,6.0,7.0,99,0.04,,---,2.06,VWS V14.01,2013-02-23 20:37:00,
2013-02-23 15:42:00,60.2,59.9,29.84,SE,128,8.0,12.0,99,0.03,,---,2.06,VWS V14.01,2013-02-23 20:42:00,
2013-02-23 15:47:00,60.3,60.0,29.84,South,188,7.0,13.0,99,0.03,,---,2.06,VWS V14.01,2013-02-23 20:47:00,
2013-02-23 15:52:00,60.6,60.3,29.85,SW,234,7.0,11.0,99,0.02,,---,2.06,VWS V14.01,2013-02-23 20:52:00,
2013-02-23 15:57:00,60.9,60.6,29.84,SSW,193,4.0,11.0,99,0.02,,---,2.06,VWS V14.01,2013-02-23 20:57:00,
2013-02-23 16:02:00,61.1,60.8,29.84,South,171,2.0,13.0,99,0.01,,---,2.06,VWS V14.01,2013-02-23 21:02:00,
2013-02-23 16:07:00,60.9,60.6,29.86,WSW,248,11.0,11.0,99,0.02,,---,2.07,VWS V14.01,2013-02-23 21:07:00,
2013-02-23 16:12:00,60.3,60.0,29.87,WSW,241,8.0,11.0,99,0.02,,---,2.07,VWS V14.01,2013-02-23 21:12:00,
2013-02-23 16:22:00,59.6,59.3,29.86,NE,51,0.0,2.0,99,0.02,,---,2.07,VWS V14.01,2013-02-23 21:22:00,
2013-02-23 16:27:00,59.6,59.3,29.85,South,186,3.0,4.0,99,0.02,,---,2.07,VWS V14.01,2013-02-23 21:27:00,
2013-02-23 16:32:00,59.9,59.6,29.85,SW,228,1.0,5.0,99,0.01,,---,2.07,VWS V14.01,2013-02-23 21:32:00,
2013-02-23 16:37:00,59.9,59.6,29.84,SE,146,2.0,5.0,99,0.01,,---,2.07,VWS V14.01,2013-02-23 21:37:00,
2013-02-23 16:42:00,59.7,59.4,29.84,NW,324,3.0,7.0,99,0.02,,---,2.08,VWS V14.01,2013-02-23 21:42:00,
2013-02-23 16:52:00,59.5,59.2,29.84,WSW,240,2.0,4.0,99,0.02,,---,2.08,VWS V14.01,2013-02-23 21:52:00,
2013-02-23 17:02:00,59.3,59.0,29.85,West,263,1.0,5.0,99,0.02,,---,2.08,VWS V14.01,2013-02-23 22:02:00,
2013-02-23 17:07:00,59.4,59.1,29.85,West,266,5.0,6.0,99,0.02,,---,2.08,VWS V14.01,2013-02-23 22:07:00,
2013-02-23 17:12:00,59.7,59.4,29.86,West,278,4.0,6.0,99,0.01,,---,2.08,VWS V14.01,2013-02-23 22:12:00,
2013-02-23 17:17:00,59.9,59.6,29.85,WNW,284,0.0,5.0,99,0.01,,---,2.08,VWS V14.01,2013-02-23 22:17:00,
2013-02-23 17:22:00,60.0,59.7,29.85,WNW,285,0.0,2.0,99,0.01,,---,2.08,VWS V14.01,2013-02-23 22:22:00,
2013-02-23 17:27:00,60.0,59.7,29.85,WNW,285,1.0,2.0,99,0.01,,---,2.08,VWS V14.01,2013-02-23 22:27:00,
2013-02-23 17:37:00,60.0,59.7,29.85,WNW,293,0.0,0.0,99,0.01,,---,2.08,VWS V14.01,2013-02-23 22:37:00,
2013-02-23 17:42:00,59.9,59.6,29.85,SSW,193,0.0,1.0,99,0.01,,---,2.08,VWS V14.01,2013-02-23 22:42:00,
2013-02-23 17:47:00,60.0,59.7,29.85,SSW,193,0.0,0.0,99,0.00,,---,2.08,VWS V14.01,2013-02-23 22:47:00,
2013-02-23 17:52:00,59.8,59.5,29.85,SSW,193,0.0,0.0,99,0.00,,---,2.08,VWS V14.01,2013-02-23 22:52:00,
2013-02-23 17:57:00,59.7,59.4,29.84,SSW,193,0.0,0.0,99,0.00,,---,2.08,VWS V14.01,2013-02-23 22:57:00,
2013-02-23 18:02:00,59.4,59.1,29.84,SSW,193,0.0,0.0,99,0.00,,---,2.08,VWS V14.01,2013-02-23 23:02:00,
2013-02-23 18:12:00,58.9,58.6,29.84,SSW,193,0.0,0.0,99,0.00,,---,2.08,VWS V14.01,2013-02-23 23:12:00,
2013-02-23 18:22:00,59.0,58.7,29.86,WNW,302,1.0,2.0,99,0.00,,---,2.08,VWS V14.01,2013-02-23 23:22:00,
2013-02-23 18:27:00,59.2,58.9,29.86,NW,308,2.0,2.0,99,0.00,,---,2.08,VWS V14.01,2013-02-23 23:27:00,
2013-02-23 18:37:00,59.6,59.3,29.86,NW,321,2.0,3.0,99,0.00,,---,2.08,VWS V14.01,2013-02-23 23:37:00,
2013-02-23 18:42:00,59.8,59.5,29.86,NW,308,4.0,4.0,99,0.00,,---,2.08,VWS V14.01,2013-02-23 23:42:00,
2013-02-23 18:47:00,59.8,59.5,29.87,NW,309,5.0,6.0,99,0.00,,---,2.08,VWS V14.01,2013-02-23 23:47:00,
2013-02-23 18:52:00,59.8,59.5,29.87,NNW,327,2.0,6.0,99,0.00,,---,2.08,VWS V14.01,2013-02-23 23:52:00,
2013-02-23 18:57:00,59.7,59.4,29.86,NNW,345,0.0,4.0,99,0.00,,---,2.08,VWS V14.01,2013-02-23 23:57:00,
2013-02-23 19:02:00,59.7,59.4,29.87,NW,316,2.0,2.0,99,0.00,,---,2.08,VWS V14.01,2013-02-24 00:02:00,
2013-02-23 19:07:00,59.6,59.3,29.88,West,273,2.0,3.0,99,0.00,,---,2.08,VWS V14.01,2013-02-24 00:07:00,
2013-02-23 19:12:00,59.5,59.2,29.88,WNW,298,3.0,5.0,99,0.00,,---,2.08,VWS V14.01,2013-02-24 00:12:00,
2013-02-23 19:17:00,59.2,58.9,29.88,NNW,340,7.0,9.0,99,0.00,,---,2.08,VWS V14.01,2013-02-24 00:17:00,
2013-02-23 19:22:00,57.4,56.6,29.89,WNW,295,7.0,14.0,97,0.00,,---,2.08,VWS V14.01,2013-02-24 00:22:00,
2013-02-23 19:27:00,56.4,55.8,29.89,NW,326,2.0,8.0,98,0.00,,---,2.08,VWS V14.01,2013-02-24 00:27:00,
2013-02-23 19:32:00,55.9,55.3,29.89,NW,323,6.0,7.0,98,0.00,,---,2.08,VWS V14.01,2013-02-24 00:32:00,
2013-02-23 19:42:00,55.5,55.2,29.90,NW,308,3.0,6.0,99,0.00,,---,2.08,VWS V14.01,2013-02-24 00:42:00,
2013-02-23 19:47:00,55.4,55.1,29.90,NNW,346,1.0,6.0,99,0.00,,---,2.08,VWS V14.01,2013-02-24 00:47:00,
2013-02-23 19:52:00,55.3,55.0,29.91,WNW,302,3.0,5.0,99,0.00,,---,2.08,VWS V14.01,2013-02-24 00:52:00,
2013-02-23 20:02:00,55.1,54.8,29.91,NW,308,1.0,8.0,99,0.00,,---,2.08,VWS V14.01,2013-02-24 01:02:00,
2013-02-23 20:07:00,55.0,54.7,29.91,NW,315,4.0,4.0,99,0.00,,---,2.08,VWS V14.01,2013-02-24 01:07:00,
2013-02-23 20:12:00,54.9,54.6,29.92,WNW,288,3.0,9.0,99,0.00,,---,2.08,VWS V14.01,2013-02-24 01:12:00,
2013-02-23 20:17:00,54.7,54.4,29.92,NW,308,7.0,8.0,99,0.00,,---,2.08,VWS V14.01,2013-02-24 01:17:00,
2013-02-23 20:22:00,54.6,54.3,29.92,WNW,282,3.0,7.0,99,0.00,,---,2.08,VWS V14.01,2013-02-24 01:22:00,
2013-02-23 20:32:00,54.6,54.3,29.93,NW,309,3.0,5.0,99,0.02,,---,2.10,VWS V14.01,2013-02-24 01:32:00,
2013-02-23 20:42:00,54.2,53.9,29.94,NW,317,4.0,12.0,99,0.07,,---,2.15,VWS V14.01,2013-02-24 01:42:00,
2013-02-23 20:47:00,53.9,53.6,29.94,NNW,328,7.0,10.0,99,0.09,,---,2.17,VWS V14.01,2013-02-24 01:47:00,
2013-02-23 20:52:00,53.7,53.4,29.94,North,349,3.0,7.0,99,0.12,,---,2.20,VWS V14.01,2013-02-24 01:52:00,
2013-02-23 20:57:00,53.6,53.3,29.94,NW,326,5.0,6.0,99,0.14,,---,2.22,VWS V14.01,2013-02-24 01:57:00,
2013-02-23 21:02:00,53.6,53.3,29.94,WNW,293,1.0,7.0,99,0.16,,---,2.24,VWS V14.01,2013-02-24 02:02:00,
2013-02-23 21:12:00,53.7,53.4,29.94,WNW,301,1.0,1.0,99,0.18,,---,2.26,VWS V14.01,2013-02-24 02:12:00,
2013-02-23 21:17:00,53.7,53.4,29.94,NNW,339,0.0,2.0,99,0.19,,---,2.27,VWS V14.01,2013-02-24 02:17:00,
2013-02-23 21:22:00,53.7,53.4,29.94,NNW,337,0.0,1.0,99,0.20,,---,2.28,VWS V14.01,2013-02-24 02:22:00,
2013-02-23 21:32:00,53.7,53.4,29.95,NNW,338,0.0,0.0,99,0.21,,---,2.30,VWS V14.01,2013-02-24 02:32:00,
2013-02-23 21:42:00,53.7,53.4,29.94,NNW,338,0.0,0.0,99,0.20,,---,2.32,VWS V14.01,2013-02-24 02:42:00,
2013-02-23 21:52:00,53.9,53.6,29.94,NNW,338,0.0,1.0,99,0.18,,---,2.35,VWS V14.01,2013-02-24 02:52:00,
2013-02-23 21:57:00,53.8,53.5,29.94,NE,39,1.0,1.0,99,0.17,,---,2.37,VWS V14.01,2013-02-24 02:57:00,
2013-02-23 22:02:00,53.9,53.6,29.93,ESE,103,2.0,2.0,99,0.16,,---,2.38,VWS V14.01,2013-02-24 03:02:00,
2013-02-23 22:07:00,53.9,53.6,29.92,ENE,77,1.0,2.0,99,0.14,,---,2.38,VWS V14.01,2013-02-24 03:07:00,
2013-02-23 22:12:00,54.0,53.7,29.91,ENE,76,1.0,2.0,99,0.14,,---,2.39,VWS V14.01,2013-02-24 03:12:00,
2013-02-23 22:22:00,54.0,53.7,29.91,SE,125,1.0,1.0,99,0.13,,---,2.40,VWS V14.01,2013-02-24 03:22:00,
2013-02-23 22:27:00,54.0,53.7,29.90,East,97,1.0,2.0,99,0.12,,---,2.40,VWS V14.01,2013-02-24 03:27:00,
2013-02-23 22:37:00,54.1,53.8,29.90,SE,134,2.0,4.0,99,0.11,,---,2.41,VWS V14.01,2013-02-24 03:37:00,
2013-02-23 22:42:00,54.3,54.0,29.89,ESE,112,3.0,5.0,99,0.10,,---,2.41,VWS V14.01,2013-02-24 03:42:00,
2013-02-23 22:47:00,54.4,54.1,29.86,ESE,117,9.0,10.0,99,0.10,,---,2.42,VWS V14.01,2013-02-24 03:47:00,
2013-02-23 22:52:00,54.5,54.2,29.86,ESE,119,8.0,11.0,99,0.08,,---,2.42,VWS V14.01,2013-02-24 03:52:00,
2013-02-23 22:57:00,54.7,54.4,29.85,SE,136,8.0,9.0,99,0.08,,---,2.43,VWS V14.01,2013-02-24 03:57:00,
2013-02-23 23:02:00,54.7,54.4,29.84,SSE,152,9.0,12.0,99,0.06,,---,2.43,VWS V14.01,2013-02-24 04:02:00,
2013-02-23 23:07:00,54.8,54.5,29.81,SE,129,10.0,15.0,99,0.05,,---,2.43,VWS V14.01,2013-02-24 04:07:00,
2013-02-23 23:12:00,55.0,54.7,29.81,ESE,115,12.0,17.0,99,0.06,,---,2.44,VWS V14.01,2013-02-24 04:12:00,
2013-02-23 23:22:00,55.6,55.3,29.82,SE,129,9.0,12.0,99,0.05,,---,2.44,VWS V14.01,2013-02-24 04:22:00,
2013-02-23 23:32:00,56.2,55.9,29.83,SE,131,3.0,6.0,99,0.04,,---,2.44,VWS V14.01,2013-02-24 04:32:00,
2013-02-23 23:37:00,56.3,56.0,29.84,ESE,120,4.0,4.0,99,0.04,,---,2.44,VWS V14.01,2013-02-24 04:37:00,
2013-02-23 23:42:00,56.7,56.4,29.82,SSE,167,4.0,9.0,99,0.03,,---,2.44,VWS V14.01,2013-02-24 04:42:00,
2013-02-23 23:47:00,57.0,56.7,29.82,SE,141,5.0,7.0,99,0.03,,---,2.44,VWS V14.01,2013-02-24 04:47:00,
2013-02-23 23:57:00,57.1,56.8,29.81,South,179,4.0,10.0,99,0.02,,---,2.44,VWS V14.01,2013-02-24 04:57:00,